CST,Max TemperatureF,Mean TemperatureF,Min TemperatureF,Max Dew PointF,MeanDew PointF,Min DewpointF,Max Humidity, Mean Humidity, Min Humidity, Max Sea Level PressureIn, Mean Sea Level PressureIn, Min Sea Level PressureIn, Max VisibilityMiles, Mean VisibilityMiles, Min VisibilityMiles, Max Wind SpeedMPH, Mean Wind SpeedMPH, Max Gust SpeedMPH,PrecipitationIn, CloudCover, Events, WindDirDegrees
2013-2-1,49,27,5,34,16,-1,83,61,39,30.40,30.17,30.00,10,10,10,17,8,23,T,5,,224
2013-2-2,54,41,27,31,26,21,100,64,28,30.23,30.15,30.08,10,10,10,33,14,44,0.00,2,,306
2013-2-3,56,37,18,26,21,16,84,54,24,30.26,30.04,29.79,10,10,10,26,9,31,0.00,0,,237
2013-2-4,42,34,26,27,25,23,92,73,53,30.04,29.94,29.86,10,10,9,16,6,22,0.00,5,,329
2013-2-5,53,39,25,28,22,18,85,57,28,30.05,29.99,29.88,10,10,10,21,7,24,0.00,2,,314
2013-2-6,58,43,28,35,29,19,75,58,41,29.98,29.88,29.76,10,10,10,20,9,24,0.00,2,,171
2013-2-7,50,36,21,28,25,19,100,71,42,30.27,30.15,29.99,10,7,0,16,8,18,0.00,3,Fog,22
2013-2-8,41,32,22,28,25,21,100,80,59,30.29,30.17,30.02,10,5,0,24,11,31,0.00,4,Fog,149
2013-2-9,52,40,28,41,33,25,93,66,38,30.01,29.73,29.52,10,6,2,24,11,31,0.10,5,Rain,150
2013-2-10,38,33,27,37,28,20,100,88,75,29.96,29.46,29.21,10,3,0,41,25,52,0.74,8,Fog-Rain-Snow,328
2013-2-11,30,22,14,19,16,11,88,76,63,30.21,30.14,29.98,10,10,10,30,13,38,0.00,0,,293
2013-2-12,39,25,10,25,18,9,88,71,54,30.17,30.06,29.98,10,10,10,16,7,22,0.00,0,,290
2013-2-13,48,36,24,31,26,19,88,67,46,29.98,29.88,29.78,10,10,10,25,9,31,T,0,,283
2013-2-14,39,30,21,30,21,16,84,66,48,30.38,30.16,29.92,10,10,10,38,17,48,0.00,4,,323
2013-2-15,33,22,10,19,15,8,92,71,49,30.44,30.37,30.29,10,9,1,28,9,35,T,4,Snow,309
2013-2-16,51,31,10,30,21,8,92,67,42,30.38,30.10,29.98,10,8,2,21,7,25,T,5,Snow,215
2013-2-17,65,42,19,30,23,18,96,57,18,29.98,29.74,29.56,10,10,8,28,8,37,0.00,0,,206
2013-2-18,42,32,22,30,20,13,74,59,44,30.18,29.89,29.63,10,10,10,40,22,52,T,4,,332
2013-2-19,29,21,12,13,6,-3,80,54,27,30.40,30.30,30.16,10,10,6,24,10,29,T,2,Snow,358
2013-2-20,23,16,9,16,8,-1,84,61,38,30.38,30.21,30.07,10,8,2,22,12,25,T,7,Snow,113
2013-2-21,19,18,16,16,13,10,92,86,80,30.18,30.00,29.88,9,2,0,18,12,24,0.13,8,Fog-Snow,51
2013-2-22,23,11,-1,14,9,-2,96,82,68,30.11,30.05,29.91,10,10,4,17,9,21,0.49,2,Snow,316
2013-2-23,36,16,-5,25,3,-9,100,80,59,30.03,29.88,29.77,10,5,0,15,3,18,0.00,1,Fog,190
2013-2-24,32,21,10,24,17,9,96,84,72,30.15,29.94,29.78,10,3,0,14,5,16,T,5,Fog,344
2013-2-25,36,25,14,30,24,12,92,78,64,30.14,30.07,29.99,10,9,5,16,8,20,T,4,Snow,349
2013-2-26,27,18,8,23,17,7,100,92,84,30.06,29.96,29.87,10,5,0,14,8,16,0.00,7,Fog,349
2013-2-27,36,29,22,27,23,17,92,80,68,30.23,30.14,29.97,10,10,7,29,18,37,0.00,5,,332
2013-2-28,31,28,24,24,22,19,88,79,69,30.30,30.26,30.15,10,10,8,24,14,29,0.00,7,,346